VVDN/DAD METAR and TAF weather

Enter ICAO airport designator
Station Type Date Time Source
VVDN METAR 2020/02/21 03:00 UTC NOAA

VVDN 210300Z 06006KT 030V100 7000 FEW015 BKN050 26/19 Q1025 NOSIG


Station Type Date Time Source
VVDN Decoded METAR 2020/02/21 03:00 UTC NOAA

Da Nang, Vietnam (VVDN) 16-02N 108-11E 7M
Feb 20, 2020 - 10:00 PM EST / 2020.02.21 0300 UTC
Wind: from the ENE (060 degrees) at 7 MPH (6 KT) (direction variable):0
Visibility: 4 mile(s):0
Sky conditions: mostly cloudy
Temperature: 78 F (26 C)
Dew Point: 66 F (19 C)
Relative Humidity: 65%
Pressure (altimeter): 30.27 in. Hg (1025 hPa)
ob: VVDN 210300Z 06006KT 030V100 7000 FEW015 BKN050 26/19 Q1025 NOSIG
cycle: 3

Station Type Date Time Source
VVDN TAF 2020/02/20 18:36 UTC NOAA

TAF VVDN 201700Z 2018/2118 14004KT 7000 SCT013 SCT060
BECMG 2021/2022 4000 BR
BECMG 2100/2101 7000 NSW
BECMG 2104/2105 06012KT

Example: see airport list